Time;durP1;ratioP1;P1;durP2;ratioP2;P2;SDS_P1;SDS_P2;PMS_P1;PMS_P2;Temp;Humidity;BMP_temperature;BMP_pressure;BME280_temperature;BME280_humidity;BME280_pressure;Samples;Min_cycle;Max_cycle;Signal;HPM_P1;HPM_P2
2024/03/26 00:04:04;;;;;;;;;;;;;;;20.05;38.59;93931.88;10452825;28;2288;-67
2024/03/26 00:09:04;;;;;;;;;;;;;;;20.02;37.32;93932.50;10460487;28;2577;-66
2024/03/26 00:14:05;;;;;;;;;;;;;;;20.00;38.21;93924.91;10460071;28;2474;-66
2024/03/26 00:19:05;;;;;;;;;;;;;;;19.99;37.84;93923.34;10458154;28;2069;-67
2024/03/26 00:24:05;;;;;;;;;;;;;;;19.96;37.35;93918.75;10465751;28;2625;-67
2024/03/26 00:29:06;;;;;;;;;;;;;;;19.95;37.21;93919.03;10468904;28;2576;-66
2024/03/26 00:34:06;;;;;;;;;;;;;;;19.93;37.01;93913.31;10481733;28;2560;-67
2024/03/26 00:39:08;;;;;;;;;;;;;;;19.91;37.52;93911.00;10468375;28;2612;-67
2024/03/26 00:44:09;;;;;;;;;;;;;;;19.90;36.72;93904.22;10468503;28;2621;-68
2024/03/26 00:49:09;;;;;;;;;;;;;;;19.88;38.69;93905.59;10467531;28;2611;-67
2024/03/26 00:54:12;;;;;;;;;;;;;;;19.86;37.80;93898.03;10467770;28;2544;-66
2024/03/26 00:59:12;;;;;;;;;;;;;;;19.84;39.08;93886.28;10465852;28;2591;-68
2024/03/26 01:04:12;;;;;;;;;;;;;;;19.83;38.26;93888.13;10467784;28;2568;-68
2024/03/26 01:09:13;;;;;;;;;;;;;;;19.81;39.14;93871.13;10464778;28;2739;-67
2024/03/26 01:14:13;;;;;;;;;;;;;;;19.79;38.08;93868.03;10466241;28;2609;-68
2024/03/26 01:19:13;;;;;;;;;;;;;;;19.79;37.77;93875.91;10465846;28;2526;-66
2024/03/26 01:24:14;;;;;;;;;;;;;;;19.77;38.44;93864.94;10468321;28;2592;-68
2024/03/26 01:29:14;;;;;;;;;;;;;;;19.75;38.67;93861.84;10446592;28;2497;-70
2024/03/26 01:34:17;;;;;;;;;;;;;;;19.74;37.40;93857.69;10482321;28;2458;-68
2024/03/26 01:39:18;;;;;;;;;;;;;;;19.72;38.22;93859.88;10471338;28;2590;-67
2024/03/26 01:44:18;;;;;;;;;;;;;;;19.71;37.53;93858.31;10467559;28;2532;-67
2024/03/26 01:49:18;;;;;;;;;;;;;;;19.69;38.33;93855.22;10497868;28;2560;-68
2024/03/26 01:54:18;;;;;;;;;;;;;;;19.67;37.92;93852.13;10466661;28;2589;-68
2024/03/26 01:59:19;;;;;;;;;;;;;;;19.66;38.17;93845.34;10498239;28;2422;-68
2024/03/26 02:04:19;;;;;;;;;;;;;;;19.65;38.40;93828.81;10451413;28;2363;-67
2024/03/26 02:09:20;;;;;;;;;;;;;;;19.64;37.30;93823.88;10470856;28;2544;-69
2024/03/26 02:14:20;;;;;;;;;;;;;;;19.61;38.72;93825.25;10463803;28;2536;-67
2024/03/26 02:19:22;;;;;;;;;;;;;;;19.60;38.56;93817.69;10466939;28;2634;-67
2024/03/26 02:24:22;;;;;;;;;;;;;;;19.59;37.87;93816.13;10479734;28;2466;-67
2024/03/26 02:29:22;;;;;;;;;;;;;;;19.58;37.64;93819.88;10462418;28;2589;-68
2024/03/26 02:34:25;;;;;;;;;;;;;;;19.56;38.66;93809.66;10465657;28;2629;-69
2024/03/26 02:39:25;;;;;;;;;;;;;;;19.56;37.85;93809.66;10447157;28;2579;-68
2024/03/26 02:44:26;;;;;;;;;;;;;;;19.54;37.69;93811.06;10457624;28;2623;-68
2024/03/26 02:49:26;;;;;;;;;;;;;;;19.53;38.94;93806.88;10464315;28;2618;-67
2024/03/26 02:54:26;;;;;;;;;;;;;;;19.51;38.72;93795.91;10462917;28;2876;-68
2024/03/26 02:59:26;;;;;;;;;;;;;;;19.49;38.14;93794.34;10461372;28;2540;-68
2024/03/26 03:04:27;;;;;;;;;;;;;;;19.48;38.55;93790.19;10463361;28;2590;-67
2024/03/26 03:09:27;;;;;;;;;;;;;;;19.47;37.33;93785.25;10464548;28;2552;-69
2024/03/26 03:14:27;;;;;;;;;;;;;;;19.46;37.30;93775.81;10460812;28;2755;-68
2024/03/26 03:19:27;;;;;;;;;;;;;;;19.43;37.33;93764.06;10463274;28;2480;-68
2024/03/26 03:24:28;;;;;;;;;;;;;;;19.43;38.63;93756.19;10463147;28;2678;-69
2024/03/26 03:29:28;;;;;;;;;;;;;;;19.41;37.03;93766.25;10463069;28;2587;-68
2024/03/26 03:34:28;;;;;;;;;;;;;;;19.40;37.50;93764.72;10466334;28;2561;-67
2024/03/26 03:39:29;;;;;;;;;;;;;;;19.38;37.83;93756.38;10463998;28;2544;-67
2024/03/26 03:44:35;;;;;;;;;;;;;;;19.38;38.53;93752.97;10461491;28;2623;-67
2024/03/26 03:49:35;;;;;;;;;;;;;;;19.37;37.52;93754.06;10465091;28;2604;-66
2024/03/26 03:54:35;;;;;;;;;;;;;;;19.35;38.09;93756.25;10459513;28;2580;-67
2024/03/26 03:59:36;;;;;;;;;;;;;;;19.34;36.92;93757.31;10492165;28;2534;-68
2024/03/26 04:04:36;;;;;;;;;;;;;;;19.33;37.96;93743.41;10445236;28;2651;-67
2024/03/26 04:09:36;;;;;;;;;;;;;;;19.30;37.25;93730.09;10460907;28;2700;-67
2024/03/26 04:14:36;;;;;;;;;;;;;;;19.31;38.61;93721.91;10460338;28;2441;-67
2024/03/26 04:19:37;;;;;;;;;;;;;;;19.30;37.55;93723.00;10478932;28;2561;-68
2024/03/26 04:24:37;;;;;;;;;;;;;;;19.29;37.84;93720.66;10459187;28;2601;-67
2024/03/26 04:29:37;;;;;;;;;;;;;;;19.27;38.07;93720.97;10461119;28;2540;-66
2024/03/26 04:34:38;;;;;;;;;;;;;;;19.26;38.61;93711.56;10459512;28;2570;-66
2024/03/26 04:39:39;;;;;;;;;;;;;;;19.25;38.10;93714.50;10458497;28;2547;-68
2024/03/26 04:44:39;;;;;;;;;;;;;;;19.24;38.54;93718.22;10461344;28;2402;-69
2024/03/26 04:49:39;;;;;;;;;;;;;;;19.23;38.28;93714.03;10448413;28;2708;-68
2024/03/26 04:54:39;;;;;;;;;;;;;;;19.22;38.18;93718.53;10466200;28;2623;-68
2024/03/26 04:59:39;;;;;;;;;;;;;;;19.21;37.58;93716.19;10477267;28;2520;-69
2024/03/26 05:04:40;;;;;;;;;;;;;;;19.20;37.14;93709.41;10458669;28;2663;-69
2024/03/26 05:09:40;;;;;;;;;;;;;;;19.20;38.40;93706.78;10467973;28;2551;-68
2024/03/26 05:14:40;;;;;;;;;;;;;;;19.22;39.30;93710.66;10485196;28;2571;-69
2024/03/26 05:19:41;;;;;;;;;;;;;;;19.30;39.13;93712.47;10469314;28;2456;-68
2024/03/26 05:24:41;;;;;;;;;;;;;;;19.35;38.33;93712.31;10498820;28;2666;-69
2024/03/26 05:29:41;;;;;;;;;;;;;;;19.40;38.90;93712.16;10481856;28;2636;-69
2024/03/26 05:34:43;;;;;;;;;;;;;;;19.47;38.57;93714.31;10466486;28;2478;-71
2024/03/26 05:39:43;;;;;;;;;;;;;;;19.49;38.66;93709.50;10473914;28;2594;-67
2024/03/26 05:44:43;;;;;;;;;;;;;;;19.56;38.02;93716.91;10463933;28;2596;-69
2024/03/26 05:49:44;;;;;;;;;;;;;;;19.58;37.48;93709.50;10501608;28;2599;-68
2024/03/26 05:54:44;;;;;;;;;;;;;;;19.62;37.68;93718.28;10467765;28;3012;-67
2024/03/26 05:59:44;;;;;;;;;;;;;;;19.67;36.89;93728.59;10499124;28;2626;-68
2024/03/26 06:04:45;;;;;;;;;;;;;;;19.67;37.72;93720.72;10469152;28;2469;-70
2024/03/26 06:09:46;;;;;;;;;;;;;;;19.71;37.32;93711.88;10451900;28;2477;-68
2024/03/26 06:14:46;;;;;;;;;;;;;;;19.73;36.80;93703.69;10464465;28;2544;-72
2024/03/26 06:19:46;;;;;;;;;;;;;;;19.76;37.33;93703.06;10501068;27;2470;-67
2024/03/26 06:24:46;;;;;;;;;;;;;;;19.78;37.09;93695.63;10481258;28;2336;-68
2024/03/26 06:29:47;;;;;;;;;;;;;;;19.80;37.06;93696.84;10466146;28;2544;-69
2024/03/26 06:34:50;;;;;;;;;;;;;;;19.80;36.53;93696.09;10468496;28;2300;-69
2024/03/26 06:39:50;;;;;;;;;;;;;;;19.83;36.24;93692.81;10479979;28;2623;-64
2024/03/26 06:44:50;;;;;;;;;;;;;;;19.85;36.24;93695.88;10467421;28;2820;-64
2024/03/26 06:49:51;;;;;;;;;;;;;;;19.84;36.96;93704.88;10469100;28;2663;-68
2024/03/26 06:54:51;;;;;;;;;;;;;;;19.88;37.77;93700.53;10465342;28;2499;-68
2024/03/26 06:59:51;;;;;;;;;;;;;;;19.93;37.19;93706.34;10464202;28;2509;-69
2024/03/26 07:04:51;;;;;;;;;;;;;;;19.95;36.95;93706.03;10467950;28;2781;-69
2024/03/26 07:09:52;;;;;;;;;;;;;;;19.97;37.41;93698.63;10482471;28;2706;-69
2024/03/26 07:14:53;;;;;;;;;;;;;;;20.01;37.23;93689.75;10461923;28;2595;-68
2024/03/26 07:19:53;;;;;;;;;;;;;;;20.03;36.71;93686.84;10461394;28;2486;-64
2024/03/26 07:24:54;;;;;;;;;;;;;;;20.02;37.58;93683.41;10454072;28;2604;-63
2024/03/26 07:29:54;;;;;;;;;;;;;;;20.02;37.87;93686.06;10452357;28;2737;-68
2024/03/26 07:34:54;;;;;;;;;;;;;;;20.01;36.86;93678.50;10457068;28;2567;-67
2024/03/26 07:39:54;;;;;;;;;;;;;;;20.04;36.73;93670.72;10437227;28;2497;-68
2024/03/26 07:44:55;;;;;;;;;;;;;;;20.09;38.95;93661.88;10439682;28;2616;-68
2024/03/26 07:49:55;;;;;;;;;;;;;;;20.12;38.12;93658.59;10453921;28;2682;-70
2024/03/26 07:54:55;;;;;;;;;;;;;;;20.10;37.60;93653.66;10456634;28;2514;-68
2024/03/26 07:59:56;;;;;;;;;;;;;;;20.10;37.11;93650.25;10459109;28;2567;-67
2024/03/26 08:04:56;;;;;;;;;;;;;;;20.12;37.62;93648.06;10461023;28;2553;-66
2024/03/26 08:09:56;;;;;;;;;;;;;;;20.14;37.97;93645.91;10461138;28;2520;-67
2024/03/26 08:14:56;;;;;;;;;;;;;;;20.15;38.16;93647.44;10459192;28;2405;-69
2024/03/26 08:19:57;;;;;;;;;;;;;;;20.16;37.60;93649.75;10457730;28;2353;-68
2024/03/26 08:24:57;;;;;;;;;;;;;;;20.17;38.23;93645.25;10459369;28;2517;-67
2024/03/26 08:29:58;;;;;;;;;;;;;;;20.16;37.39;93641.84;10455792;28;2602;-67
2024/03/26 08:34:58;;;;;;;;;;;;;;;20.18;37.57;93633.63;10456944;28;2458;-67
2024/03/26 08:39:58;;;;;;;;;;;;;;;20.19;37.24;93622.03;10461200;28;2619;-67
2024/03/26 08:45:01;;;;;;;;;;;;;;;20.20;37.74;93620.97;10465656;28;2327;-67
2024/03/26 08:50:02;;;;;;;;;;;;;;;20.21;37.88;93628.56;10465190;28;2641;-68
2024/03/26 08:55:03;;;;;;;;;;;;;;;20.22;38.01;93632.72;10465736;28;2562;-67
2024/03/26 09:00:03;;;;;;;;;;;;;;;20.23;37.47;93633.50;10464238;28;2544;-67
2024/03/26 09:05:04;;;;;;;;;;;;;;;20.28;37.77;93631.44;10468459;28;2578;-66
2024/03/26 09:10:06;;;;;;;;;;;;;;;20.28;38.27;93625.38;10464257;28;2548;-66
2024/03/26 09:15:06;;;;;;;;;;;;;;;20.28;37.70;93623.53;10462743;28;2501;-66
2024/03/26 09:20:06;;;;;;;;;;;;;;;20.31;38.59;93630.00;10496331;28;2591;-67
2024/03/26 09:25:07;;;;;;;;;;;;;;;20.33;38.79;93632.31;10494141;28;2670;-68
2024/03/26 09:30:08;;;;;;;;;;;;;;;20.37;39.17;93622.69;10462716;28;2560;-67
2024/03/26 09:35:08;;;;;;;;;;;;;;;20.43;38.39;93613.50;10462233;28;2597;-67
2024/03/26 09:40:11;;;;;;;;;;;;;;;20.44;39.06;93597.41;10467532;28;2572;-67
2024/03/26 09:45:14;;;;;;;;;;;;;;;20.46;39.05;93589.97;10463356;28;2400;-66
2024/03/26 09:50:14;;;;;;;;;;;;;;;20.51;40.17;93589.75;10461922;28;2624;-67
2024/03/26 09:55:15;;;;;;;;;;;;;;;20.53;39.92;93584.91;10451698;28;2588;-66
2024/03/26 10:00:15;;;;;;;;;;;;;;;20.55;40.17;93588.00;10463787;28;2799;-67
2024/03/26 10:05:16;;;;;;;;;;;;;;;20.56;40.31;93576.38;10466197;28;2543;-67
2024/03/26 10:10:17;;;;;;;;;;;;;;;20.59;40.32;93567.81;10462056;28;2571;-66
2024/03/26 10:15:18;;;;;;;;;;;;;;;20.60;40.30;93565.97;10460927;28;2561;-65
2024/03/26 10:20:18;;;;;;;;;;;;;;;20.60;40.38;93558.06;10459116;28;2681;-67
2024/03/26 10:25:21;;;;;;;;;;;;;;;20.66;40.77;93557.53;10465227;28;2607;-67
2024/03/26 10:30:21;;;;;;;;;;;;;;;20.66;41.19;93547.03;10461155;28;2563;-66
2024/03/26 10:35:22;;;;;;;;;;;;;;;20.71;41.03;93531.00;10463871;28;2584;-67
2024/03/26 10:40:25;;;;;;;;;;;;;;;20.67;41.20;93522.22;10460688;28;2592;-67
2024/03/26 10:45:25;;;;;;;;;;;;;;;20.70;41.58;93511.03;10463342;28;2532;-67
2024/03/26 10:50:25;;;;;;;;;;;;;;;20.70;41.73;93494.47;10478543;28;2536;-67
2024/03/26 10:55:26;;;;;;;;;;;;;;;20.70;42.36;93500.50;10460440;28;2577;-71
2024/03/26 11:00:26;;;;;;;;;;;;;;;20.75;41.67;93491.63;10459745;28;2424;-70
2024/03/26 11:05:26;;;;;;;;;;;;;;;20.72;41.88;93497.53;10445014;28;2304;-70
2024/03/26 11:10:27;;;;;;;;;;;;;;;20.69;41.48;93500.84;10442599;28;2526;-72
2024/03/26 11:15:31;;;;;;;;;;;;;;;20.69;41.14;93491.06;10474398;28;2354;-71
2024/03/26 11:20:32;;;;;;;;;;;;;;;20.68;41.52;93475.59;10458563;28;2548;-72
2024/03/26 11:25:32;;;;;;;;;;;;;;;20.69;41.33;93467.38;10458879;28;2418;-72
2024/03/26 11:30:32;;;;;;;;;;;;;;;20.75;41.65;93473.97;10459715;28;2573;-68
2024/03/26 11:35:33;;;;;;;;;;;;;;;20.74;42.53;93471.66;10463514;28;2758;-70
2024/03/26 11:40:34;;;;;;;;;;;;;;;20.77;42.75;93453.34;10456715;28;2354;-71
2024/03/26 11:45:34;;;;;;;;;;;;;;;20.84;42.64;93443.03;10456360;28;2581;-72
2024/03/26 11:50:34;;;;;;;;;;;;;;;20.85;43.06;93443.81;10461667;28;2659;-73
2024/03/26 11:55:35;;;;;;;;;;;;;;;20.93;42.69;93435.78;10475989;28;2462;-71
2024/03/26 12:00:35;;;;;;;;;;;;;;;20.88;43.46;93425.47;10445989;28;2583;-70
2024/03/26 12:05:35;;;;;;;;;;;;;;;20.92;43.16;93410.53;10460391;28;2553;-70
2024/03/26 12:10:36;;;;;;;;;;;;;;;20.93;43.24;93398.94;10462704;28;2607;-69
2024/03/26 12:15:36;;;;;;;;;;;;;;;20.96;43.49;93382.44;10464354;28;2608;-68
2024/03/26 12:20:36;;;;;;;;;;;;;;;20.97;43.63;93373.47;10471256;28;2601;-68
2024/03/26 12:25:36;;;;;;;;;;;;;;;20.97;43.43;93364.78;10470597;28;2534;-69
2024/03/26 12:30:37;;;;;;;;;;;;;;;21.00;43.99;93375.41;10471373;28;2654;-69
2024/03/26 12:35:37;;;;;;;;;;;;;;;20.98;43.54;93359.19;10469075;28;2713;-72
2024/03/26 12:40:37;;;;;;;;;;;;;;;20.97;44.00;93346.34;10468095;28;2541;-68
2024/03/26 12:45:38;;;;;;;;;;;;;;;20.97;44.45;93333.97;10467401;28;2536;-69
2024/03/26 12:50:38;;;;;;;;;;;;;;;20.96;44.70;93335.03;10467691;28;2652;-68
2024/03/26 12:55:38;;;;;;;;;;;;;;;21.01;44.41;93332.19;10465006;28;2596;-68
2024/03/26 13:00:39;;;;;;;;;;;;;;;20.95;45.62;93330.13;10464375;28;2591;-72
2024/03/26 13:05:39;;;;;;;;;;;;;;;20.95;45.32;93327.47;10460466;28;2473;-70
2024/03/26 13:10:42;;;;;;;;;;;;;;;20.86;45.32;93330.25;10460213;28;2867;-67
2024/03/26 13:15:46;;;;;;;;;;;;;;;20.83;45.38;93315.13;10463767;28;2827;-68
2024/03/26 13:20:46;;;;;;;;;;;;;;;20.80;44.99;93307.88;10467418;28;2722;-70
2024/03/26 13:25:46;;;;;;;;;;;;;;;20.74;44.86;93295.28;10467057;28;2881;-69
2024/03/26 13:30:47;;;;;;;;;;;;;;;20.73;44.92;93291.13;10461118;28;2744;-69
2024/03/26 13:35:47;;;;;;;;;;;;;;;20.70;44.85;93283.88;10466824;28;2873;-70
2024/03/26 13:40:49;;;;;;;;;;;;;;;20.66;44.98;93272.47;10479509;28;2804;-70
2024/03/26 13:45:49;;;;;;;;;;;;;;;20.62;44.72;93279.50;10461024;28;2539;-71
2024/03/26 13:50:50;;;;;;;;;;;;;;;20.59;44.38;93273.03;10462671;28;2687;-71
2024/03/26 13:55:50;;;;;;;;;;;;;;;20.56;44.62;93270.31;10465145;28;2802;-71
2024/03/26 14:00:50;;;;;;;;;;;;;;;20.52;44.59;93262.31;10493448;28;2737;-70
2024/03/26 14:05:50;;;;;;;;;;;;;;;20.50;44.60;93261.88;10479364;28;2791;-72
2024/03/26 14:10:51;;;;;;;;;;;;;;;20.47;44.29;93264.41;10448474;28;2925;-68
2024/03/26 14:15:51;;;;;;;;;;;;;;;20.46;42.84;93254.97;10462757;28;2735;-72
2024/03/26 14:20:51;;;;;;;;;;;;;;;20.21;38.16;93255.03;10460035;28;2688;-71
2024/03/26 14:25:51;;;;;;;;;;;;;;;19.99;37.15;93231.75;10460152;28;2751;-74
2024/03/26 14:30:52;;;;;;;;;;;;;;;19.86;37.08;93237.34;10459671;28;2677;-70
2024/03/26 14:35:52;;;;;;;;;;;;;;;19.94;39.55;93232.00;10459004;28;2837;-72
2024/03/26 14:40:52;;;;;;;;;;;;;;;20.03;40.20;93231.88;10459196;28;2651;-69
2024/03/26 14:45:53;;;;;;;;;;;;;;;20.07;40.38;93236.13;10445219;28;2878;-69
2024/03/26 14:50:54;;;;;;;;;;;;;;;20.13;40.81;93239.31;10464090;28;2729;-68
2024/03/26 14:55:55;;;;;;;;;;;;;;;20.20;40.90;93231.66;10459364;28;2817;-68
2024/03/26 15:00:55;;;;;;;;;;;;;;;20.28;40.49;93226.28;10453914;28;2945;-68
2024/03/26 15:05:56;;;;;;;;;;;;;;;20.36;40.38;93234.41;10458786;28;2876;-69
2024/03/26 15:10:57;;;;;;;;;;;;;;;20.40;40.82;93224.72;10461301;28;2751;-69
2024/03/26 15:15:57;;;;;;;;;;;;;;;20.45;40.60;93222.63;10458396;28;2792;-68
2024/03/26 15:20:57;;;;;;;;;;;;;;;20.49;40.59;93215.59;10473682;28;2698;-70
2024/03/26 15:25:57;;;;;;;;;;;;;;;20.53;40.53;93215.69;10446888;28;2811;-69
2024/03/26 15:36:17;;;;;;;;;;;;;;;20.58;40.27;93199.69;10457282;28;2771;-70
2024/03/26 15:41:17;;;;;;;;;;;;;;;20.60;40.31;93198.25;10473372;28;2855;-70
2024/03/26 15:46:18;;;;;;;;;;;;;;;20.62;40.17;93201.31;10460161;28;2877;-69
2024/03/26 15:51:18;;;;;;;;;;;;;;;20.64;40.44;93198.34;10491745;28;2566;-70
2024/03/26 15:56:18;;;;;;;;;;;;;;;20.67;40.23;93190.53;10487235;28;3314;-71
2024/03/26 16:01:21;;;;;;;;;;;;;;;20.68;40.43;93186.81;10470867;28;2644;-71
2024/03/26 16:06:21;;;;;;;;;;;;;;;20.69;40.33;93179.69;10439414;28;2791;-70
2024/03/26 16:11:21;;;;;;;;;;;;;;;20.72;40.09;93179.78;10457661;28;2759;-71
2024/03/26 16:16:22;;;;;;;;;;;;;;;20.74;40.34;93185.47;10484283;28;2753;-70
2024/03/26 16:21:22;;;;;;;;;;;;;;;20.74;40.36;93168.91;10472746;28;2850;-69
2024/03/26 16:26:23;;;;;;;;;;;;;;;20.75;39.97;93150.13;10459584;28;2790;-69
2024/03/26 16:31:23;;;;;;;;;;;;;;;20.75;39.97;93144.13;10464313;28;2602;-70
2024/03/26 16:36:23;;;;;;;;;;;;;;;20.77;40.36;93152.47;10460091;28;2761;-69
2024/03/26 16:41:30;;;;;;;;;;;;;;;20.78;40.19;93160.00;10462715;28;2861;-71
2024/03/26 16:46:30;;;;;;;;;;;;;;;20.80;40.14;93142.00;10449262;28;2773;-73
2024/03/26 16:51:31;;;;;;;;;;;;;;;20.81;40.12;93132.25;10461079;28;2864;-72
2024/03/26 16:56:31;;;;;;;;;;;;;;;20.82;39.97;93124.00;10463371;28;2850;-70
2024/03/26 17:01:32;;;;;;;;;;;;;;;20.84;40.16;93123.66;10438249;28;2807;-72
2024/03/26 17:06:32;;;;;;;;;;;;;;;20.85;40.13;93112.03;10492404;28;2858;-70
2024/03/26 17:11:33;;;;;;;;;;;;;;;20.86;39.95;93114.34;10467671;28;2860;-71
2024/03/26 17:16:33;;;;;;;;;;;;;;;20.87;39.96;93105.34;10465395;28;2796;-71
2024/03/26 17:21:33;;;;;;;;;;;;;;;20.87;39.89;93101.94;10468275;28;2766;-71
2024/03/26 17:26:33;;;;;;;;;;;;;;;20.87;39.89;93102.72;10497896;28;2751;-71
2024/03/26 17:31:34;;;;;;;;;;;;;;;20.88;39.92;93098.97;10478627;28;2868;-72
2024/03/26 17:36:34;;;;;;;;;;;;;;;20.90;40.03;93095.97;10460762;28;2971;-72
2024/03/26 17:41:35;;;;;;;;;;;;;;;20.91;40.06;93100.16;10461392;28;2838;-71
2024/03/26 17:46:36;;;;;;;;;;;;;;;20.91;40.15;93095.66;10496762;28;2809;-72
2024/03/26 17:51:36;;;;;;;;;;;;;;;20.95;40.63;93096.50;10462747;28;2792;-68
2024/03/26 17:56:36;;;;;;;;;;;;;;;21.03;40.77;93100.09;10492348;28;2865;-68
2024/03/26 18:01:36;;;;;;;;;;;;;;;21.10;40.83;93089.00;10494609;28;2794;-66
2024/03/26 18:06:37;;;;;;;;;;;;;;;21.18;40.42;93095.94;10459111;28;2559;-67
2024/03/26 18:11:37;;;;;;;;;;;;;;;21.21;40.70;93092.63;10494489;28;2784;-70
2024/03/26 18:16:37;;;;;;;;;;;;;;;21.31;40.05;93092.13;10453258;28;2801;-70
2024/03/26 18:21:37;;;;;;;;;;;;;;;21.36;39.17;93083.94;10461520;28;2586;-70
2024/03/26 18:26:38;;;;;;;;;;;;;;;21.41;38.44;93092.34;10461057;28;2581;-67
2024/03/26 18:31:38;;;;;;;;;;;;;;;21.48;37.55;93089.88;10458074;28;2850;-67
2024/03/26 18:36:38;;;;;;;;;;;;;;;21.54;38.17;93085.13;10461256;28;2872;-67
2024/03/26 18:41:38;;;;;;;;;;;;;;;21.49;38.71;93088.78;10493711;28;2741;-67
2024/03/26 18:46:39;;;;;;;;;;;;;;;21.48;39.09;93100.44;10447542;28;2807;-67
2024/03/26 18:51:39;;;;;;;;;;;;;;;21.47;39.26;93090.25;10463184;28;2728;-67
2024/03/26 18:56:39;;;;;;;;;;;;;;;21.55;38.91;93097.97;10460116;28;2708;-67
2024/03/26 19:01:40;;;;;;;;;;;;;;;21.60;38.69;93083.75;10457468;28;2787;-67
2024/03/26 19:06:40;;;;;;;;;;;;;;;21.52;39.17;93084.69;10459872;28;2922;-67
2024/03/26 19:11:40;;;;;;;;;;;;;;;21.52;39.02;93084.69;10437882;28;2659;-69
2024/03/26 19:16:41;;;;;;;;;;;;;;;21.52;39.40;93087.31;10453242;28;2585;-67
2024/03/26 19:21:41;;;;;;;;;;;;;;;21.52;39.40;93079.41;10456146;28;2562;-67
2024/03/26 19:26:42;;;;;;;;;;;;;;;21.56;39.54;93090.81;10451664;28;2937;-67
2024/03/26 19:31:42;;;;;;;;;;;;;;;21.52;39.76;93089.97;10455428;28;2593;-66
2024/03/26 19:36:43;;;;;;;;;;;;;;;21.62;39.45;93092.06;10471145;28;2872;-67
2024/03/26 19:41:43;;;;;;;;;;;;;;;21.52;39.36;93096.00;10440699;28;2583;-63
2024/03/26 19:46:43;;;;;;;;;;;;;;;21.53;40.16;93089.63;10461237;28;2754;-63
2024/03/26 19:51:44;;;;;;;;;;;;;;;21.53;40.27;93086.22;10458710;28;2793;-62
2024/03/26 19:56:44;;;;;;;;;;;;;;;21.53;40.27;93091.50;10455019;28;2668;-69
2024/03/26 20:01:44;;;;;;;;;;;;;;;21.63;38.48;93075.94;10474371;28;2780;-66
2024/03/26 20:06:46;;;;;;;;;;;;;;;21.65;37.71;93088.75;10458444;28;2720;-63
2024/03/26 20:11:46;;;;;;;;;;;;;;;21.62;37.53;93082.28;10456847;28;2850;-66
2024/03/26 20:16:46;;;;;;;;;;;;;;;21.65;37.19;93086.13;10463734;28;2908;-66
2024/03/26 20:21:47;;;;;;;;;;;;;;;21.58;38.45;93096.50;10460079;28;2811;-66
2024/03/26 20:26:47;;;;;;;;;;;;;;;21.56;37.93;93094.22;10449545;28;2748;-66
2024/03/26 20:31:48;;;;;;;;;;;;;;;21.51;38.03;93083.19;10461846;28;2850;-66
2024/03/26 20:36:51;;;;;;;;;;;;;;;21.60;38.61;93079.25;10475109;28;2790;-67
2024/03/26 20:41:52;;;;;;;;;;;;;;;21.65;38.12;93081.63;10496779;28;2854;-67
2024/03/26 20:46:52;;;;;;;;;;;;;;;21.65;38.04;93083.50;10496516;28;2779;-67
2024/03/26 20:51:53;;;;;;;;;;;;;;;21.70;37.40;93075.31;10471319;28;2847;-67
2024/03/26 20:56:53;;;;;;;;;;;;;;;21.69;39.76;93065.88;10463141;28;2848;-65
2024/03/26 21:01:53;;;;;;;;;;;;;;;21.70;38.80;93076.06;10497885;28;2811;-65
2024/03/26 21:06:54;;;;;;;;;;;;;;;21.67;37.69;93076.78;10462457;28;2619;-62
2024/03/26 21:11:54;;;;;;;;;;;;;;;21.63;38.45;93080.44;10466903;28;2846;-62
2024/03/26 21:16:57;;;;;;;;;;;;;;;21.57;38.58;93074.66;10467242;28;2867;-63
2024/03/26 21:21:57;;;;;;;;;;;;;;;21.44;40.39;93065.31;10496399;28;2799;-63
2024/03/26 21:26:58;;;;;;;;;;;;;;;21.39;39.50;93070.09;10465840;28;2778;-62
2024/03/26 21:31:58;;;;;;;;;;;;;;;21.25;41.62;93072.38;10464702;28;2731;-66
2024/03/26 21:36:59;;;;;;;;;;;;;;;21.19;42.24;93073.75;10448654;28;2800;-65
2024/03/26 21:41:59;;;;;;;;;;;;;;;21.15;43.25;93067.63;10465173;28;2841;-66
2024/03/26 21:46:59;;;;;;;;;;;;;;;21.08;43.42;93061.09;10463931;28;2815;-65
2024/03/26 21:52:00;;;;;;;;;;;;;;;21.03;43.65;93052.69;10454037;28;2923;-65
2024/03/26 21:57:00;;;;;;;;;;;;;;;20.99;44.19;93060.50;10465050;28;2840;-66
2024/03/26 22:02:00;;;;;;;;;;;;;;;20.94;44.58;93052.84;10494945;28;2861;-65
2024/03/26 22:07:03;;;;;;;;;;;;;;;20.93;43.92;93055.81;10462420;28;2827;-66
2024/03/26 22:12:03;;;;;;;;;;;;;;;20.88;44.79;93056.81;10461420;28;2802;-66
2024/03/26 22:17:04;;;;;;;;;;;;;;;20.87;44.55;93057.19;10461787;28;2993;-67
2024/03/26 22:22:05;;;;;;;;;;;;;;;20.82;44.81;93058.19;10463919;28;2791;-66
2024/03/26 22:27:05;;;;;;;;;;;;;;;20.77;44.75;93047.91;10467677;28;2548;-66
2024/03/26 22:32:09;;;;;;;;;;;;;;;20.74;44.96;93048.59;10493365;28;2793;-65
2024/03/26 22:37:09;;;;;;;;;;;;;;;20.71;44.89;93048.50;10451750;28;2590;-65
2024/03/26 22:42:09;;;;;;;;;;;;;;;20.68;44.98;93044.69;10451371;28;2819;-66
2024/03/26 22:47:10;;;;;;;;;;;;;;;20.65;45.42;93034.06;10465590;28;2644;-65
2024/03/26 22:52:10;;;;;;;;;;;;;;;20.62;45.50;93046.03;10469227;28;2861;-67
2024/03/26 22:57:10;;;;;;;;;;;;;;;20.61;45.22;93044.50;10464794;28;2852;-67
2024/03/26 23:02:11;;;;;;;;;;;;;;;20.58;45.42;93034.66;10459296;28;2518;-67
2024/03/26 23:07:11;;;;;;;;;;;;;;;20.55;45.63;93022.16;10464047;28;2787;-67
2024/03/26 23:12:11;;;;;;;;;;;;;;;20.53;45.81;93027.00;10462547;28;2846;-67
2024/03/26 23:17:12;;;;;;;;;;;;;;;20.51;45.74;93026.56;10493494;28;2907;-65
2024/03/26 23:22:14;;;;;;;;;;;;;;;20.48;45.95;93019.38;10493968;28;2921;-67
2024/03/26 23:27:15;;;;;;;;;;;;;;;20.47;45.87;93022.31;10444230;28;2849;-65
2024/03/26 23:32:15;;;;;;;;;;;;;;;20.43;45.85;93027.50;10459709;28;2736;-66
2024/03/26 23:37:16;;;;;;;;;;;;;;;20.40;45.55;93030.03;10497401;28;2814;-66
2024/03/26 23:42:16;;;;;;;;;;;;;;;20.38;45.65;93032.97;10461992;28;2782;-65
2024/03/26 23:47:16;;;;;;;;;;;;;;;20.37;45.78;93033.31;10461726;28;2700;-66
2024/03/26 23:52:20;;;;;;;;;;;;;;;20.35;45.86;93035.53;10446316;28;2863;-66
2024/03/26 23:57:20;;;;;;;;;;;;;;;20.32;46.07;93036.22;10461029;28;2821;-65
